Aérodrome :
LOGIN :

S'inscrire | Disclaimer

   EN    FR    IT 

 










Légende :    VFR   VFR Marginal   IFR   IFR Intensif   IFR Très Intensif
Visi : 
Plafond : 
>= 8 km
>= 3000ft
5 à 8 km
1000 à 3000 ft
1500m à 5 km
500 à 1000 ft
800 à 1500m
200 à 500 ft
< 800m
< 200 ft
Symboles :   Orages  Brouillard  Fortes neiges  Fortes précipitations  Vent > 20 kt
SIGMETs :   Divers  Orages  Givrage  Turbulence  Onde Orograph.  Cendres Volcan.






- Altitude de l'aérodrome : 24 ft
- Code IATA : FAO


LPFR - Faro

DERNIER METAR :
  • 070930Z 24011KT 9999 SCT030 20/14 Q1014

METARs EXPIRÉS :
  • 070900Z 29010KT 9999 SCT030 21/13 Q1014
  • 070830Z 31010KT 270V330 9999 SCT024 20/13 Q1014
  • 070800Z 29008KT 260V330 9999 FEW022 19/14 Q1014
  • 070730Z 29007KT 9999 FEW030 19/14 Q1013
  • 070700Z 29005KT 9999 FEW030 18/14 Q1013

TAF TAF LPFR
Valide du 07 à 06h jusqu'au 08 à 06h UTC


070500Z 0706/0806 26008KT CAVOK
TEMPO 0708/0712 9999 BKN035
BECMG 0710/0713 24015KT
BECMG 0718/0721 32008KT



MET'MAP, la Météo Aéronautique d'un coup d'oeil ! - Copyright ORBIFLY Décembre 2007 - Disclaimer

ORBIFLY MET'MAP TEAM :

Programmation & Développement : Alexandra Zaïnal
Sur une idée originale de : Baudouin d'Aumeries
Assistance à la programmation : Marc-Olivier Méhu
Soutien technique & logistique : Manuel Goepfert

Contact : metmap@orbifly.com




SOURCES & CREDITS :

   NOAA